sensor_id;sensor_type;location;lat;lon;timestamp;P1;durP1;ratioP1;P2;durP2;ratioP2
74908;SDS011;63468;52.058;4.824;2023-01-26T00:01:09;111.43;;;35.55;;
74908;SDS011;63468;52.058;4.824;2023-01-26T00:03:39;119.35;;;34.53;;
74908;SDS011;63468;52.058;4.824;2023-01-26T00:06:05;109.38;;;34.60;;
74908;SDS011;63468;52.058;4.824;2023-01-26T00:08:50;105.00;;;32.95;;
74908;SDS011;63468;52.058;4.824;2023-01-26T00:11:20;101.55;;;32.28;;
74908;SDS011;63468;52.058;4.824;2023-01-26T00:13:50;112.78;;;37.30;;
74908;SDS011;63468;52.058;4.824;2023-01-26T00:16:16;106.95;;;32.03;;
74908;SDS011;63468;52.058;4.824;2023-01-26T00:18:42;121.93;;;33.50;;
74908;SDS011;63468;52.058;4.824;2023-01-26T00:21:08;109.40;;;31.80;;
74908;SDS011;63468;52.058;4.824;2023-01-26T00:23:36;109.03;;;33.03;;
74908;SDS011;63468;52.058;4.824;2023-01-26T00:26:02;98.57;;;32.13;;
74908;SDS011;63468;52.058;4.824;2023-01-26T00:28:30;118.10;;;36.58;;
74908;SDS011;63468;52.058;4.824;2023-01-26T00:33:48;100.95;;;29.42;;
74908;SDS011;63468;52.058;4.824;2023-01-26T00:36:14;84.38;;;30.05;;
74908;SDS011;63468;52.058;4.824;2023-01-26T00:38:39;93.28;;;29.33;;
74908;SDS011;63468;52.058;4.824;2023-01-26T00:41:05;81.53;;;29.95;;
74908;SDS011;63468;52.058;4.824;2023-01-26T00:43:30;96.78;;;33.25;;
74908;SDS011;63468;52.058;4.824;2023-01-26T00:45:56;106.72;;;31.20;;
74908;SDS011;63468;52.058;4.824;2023-01-26T00:48:22;92.85;;;30.17;;
74908;SDS011;63468;52.058;4.824;2023-01-26T00:50:49;118.07;;;33.45;;
74908;SDS011;63468;52.058;4.824;2023-01-26T00:53:14;93.07;;;31.23;;
74908;SDS011;63468;52.058;4.824;2023-01-26T00:55:40;96.10;;;30.88;;
74908;SDS011;63468;52.058;4.824;2023-01-26T00:58:06;97.93;;;28.10;;
74908;SDS011;63468;52.058;4.824;2023-01-26T01:00:32;85.95;;;31.05;;
74908;SDS011;63468;52.058;4.824;2023-01-26T01:02:58;92.53;;;31.70;;
74908;SDS011;63468;52.058;4.824;2023-01-26T01:05:24;95.75;;;31.63;;
74908;SDS011;63468;52.058;4.824;2023-01-26T01:07:54;92.80;;;30.23;;
74908;SDS011;63468;52.058;4.824;2023-01-26T01:10:19;106.35;;;32.95;;
74908;SDS011;63468;52.058;4.824;2023-01-26T01:12:45;96.65;;;31.02;;
74908;SDS011;63468;52.058;4.824;2023-01-26T01:15:10;105.47;;;32.33;;
74908;SDS011;63468;52.058;4.824;2023-01-26T01:17:36;86.70;;;31.52;;
74908;SDS011;63468;52.058;4.824;2023-01-26T01:20:10;86.50;;;30.92;;
74908;SDS011;63468;52.058;4.824;2023-01-26T01:22:38;99.70;;;30.20;;
74908;SDS011;63468;52.058;4.824;2023-01-26T01:25:04;101.30;;;30.88;;
74908;SDS011;63468;52.058;4.824;2023-01-26T01:27:29;101.75;;;31.77;;
74908;SDS011;63468;52.058;4.824;2023-01-26T01:29:54;95.00;;;32.03;;
74908;SDS011;63468;52.058;4.824;2023-01-26T01:32:20;76.32;;;28.90;;
74908;SDS011;63468;52.058;4.824;2023-01-26T01:34:46;87.82;;;29.05;;
74908;SDS011;63468;52.058;4.824;2023-01-26T01:37:12;86.25;;;28.50;;
74908;SDS011;63468;52.058;4.824;2023-01-26T01:39:37;84.68;;;29.88;;
74908;SDS011;63468;52.058;4.824;2023-01-26T01:42:03;89.63;;;30.83;;
74908;SDS011;63468;52.058;4.824;2023-01-26T01:44:28;97.30;;;29.67;;
74908;SDS011;63468;52.058;4.824;2023-01-26T01:46:54;97.10;;;30.98;;
74908;SDS011;63468;52.058;4.824;2023-01-26T01:49:26;88.75;;;31.73;;
74908;SDS011;63468;52.058;4.824;2023-01-26T01:52:17;93.93;;;29.70;;
74908;SDS011;63468;52.058;4.824;2023-01-26T01:57:18;95.15;;;29.27;;
74908;SDS011;63468;52.058;4.824;2023-01-26T01:59:53;81.18;;;28.67;;
74908;SDS011;63468;52.058;4.824;2023-01-26T02:02:23;101.25;;;28.92;;
74908;SDS011;63468;52.058;4.824;2023-01-26T02:04:49;92.88;;;30.42;;
74908;SDS011;63468;52.058;4.824;2023-01-26T02:07:14;92.05;;;28.65;;
74908;SDS011;63468;52.058;4.824;2023-01-26T02:09:40;91.07;;;27.20;;
74908;SDS011;63468;52.058;4.824;2023-01-26T02:12:28;83.32;;;26.17;;
74908;SDS011;63468;52.058;4.824;2023-01-26T02:14:54;82.05;;;28.85;;
74908;SDS011;63468;52.058;4.824;2023-01-26T02:17:20;90.20;;;31.00;;
74908;SDS011;63468;52.058;4.824;2023-01-26T02:22:51;85.20;;;27.65;;
74908;SDS011;63468;52.058;4.824;2023-01-26T02:25:34;91.72;;;29.52;;
74908;SDS011;63468;52.058;4.824;2023-01-26T02:28:04;80.72;;;27.23;;
74908;SDS011;63468;52.058;4.824;2023-01-26T02:30:29;94.30;;;26.85;;
74908;SDS011;63468;52.058;4.824;2023-01-26T02:32:55;82.20;;;28.55;;
74908;SDS011;63468;52.058;4.824;2023-01-26T02:35:20;80.72;;;31.02;;
74908;SDS011;63468;52.058;4.824;2023-01-26T02:37:46;82.03;;;28.33;;
74908;SDS011;63468;52.058;4.824;2023-01-26T02:40:12;74.00;;;27.55;;
74908;SDS011;63468;52.058;4.824;2023-01-26T02:42:48;77.70;;;27.92;;
74908;SDS011;63468;52.058;4.824;2023-01-26T02:45:18;85.88;;;28.88;;
74908;SDS011;63468;52.058;4.824;2023-01-26T02:47:43;80.68;;;28.08;;
74908;SDS011;63468;52.058;4.824;2023-01-26T02:50:09;90.05;;;27.98;;
74908;SDS011;63468;52.058;4.824;2023-01-26T02:52:35;78.50;;;27.42;;
74908;SDS011;63468;52.058;4.824;2023-01-26T02:55:01;84.28;;;28.88;;
74908;SDS011;63468;52.058;4.824;2023-01-26T02:57:45;78.70;;;28.08;;
74908;SDS011;63468;52.058;4.824;2023-01-26T03:00:12;80.60;;;28.13;;
74908;SDS011;63468;52.058;4.824;2023-01-26T03:02:39;74.80;;;27.48;;
74908;SDS011;63468;52.058;4.824;2023-01-26T03:05:05;78.15;;;28.23;;
74908;SDS011;63468;52.058;4.824;2023-01-26T03:07:31;77.53;;;29.60;;
74908;SDS011;63468;52.058;4.824;2023-01-26T03:09:56;74.18;;;26.77;;
74908;SDS011;63468;52.058;4.824;2023-01-26T03:12:24;84.03;;;27.48;;
74908;SDS011;63468;52.058;4.824;2023-01-26T03:14:50;69.93;;;25.77;;
74908;SDS011;63468;52.058;4.824;2023-01-26T03:17:34;77.57;;;26.20;;
74908;SDS011;63468;52.058;4.824;2023-01-26T03:20:00;69.72;;;26.25;;
74908;SDS011;63468;52.058;4.824;2023-01-26T03:22:43;69.35;;;27.10;;
74908;SDS011;63468;52.058;4.824;2023-01-26T03:25:27;74.78;;;26.33;;
74908;SDS011;63468;52.058;4.824;2023-01-26T03:28:11;81.03;;;27.25;;
74908;SDS011;63468;52.058;4.824;2023-01-26T03:30:37;83.80;;;27.13;;
74908;SDS011;63468;52.058;4.824;2023-01-26T03:33:03;73.20;;;25.95;;
74908;SDS011;63468;52.058;4.824;2023-01-26T03:35:28;77.80;;;25.48;;
74908;SDS011;63468;52.058;4.824;2023-01-26T03:37:54;79.25;;;27.08;;
74908;SDS011;63468;52.058;4.824;2023-01-26T03:40:19;72.95;;;27.05;;
74908;SDS011;63468;52.058;4.824;2023-01-26T03:43:07;74.78;;;28.60;;
74908;SDS011;63468;52.058;4.824;2023-01-26T03:45:51;75.30;;;26.80;;
74908;SDS011;63468;52.058;4.824;2023-01-26T03:48:36;74.57;;;26.52;;
74908;SDS011;63468;52.058;4.824;2023-01-26T03:51:20;62.65;;;26.00;;
74908;SDS011;63468;52.058;4.824;2023-01-26T03:54:04;72.57;;;26.20;;
74908;SDS011;63468;52.058;4.824;2023-01-26T03:56:47;77.55;;;25.40;;
74908;SDS011;63468;52.058;4.824;2023-01-26T03:59:13;83.07;;;27.60;;
74908;SDS011;63468;52.058;4.824;2023-01-26T04:01:44;69.43;;;28.05;;
74908;SDS011;63468;52.058;4.824;2023-01-26T04:04:29;81.45;;;27.63;;
74908;SDS011;63468;52.058;4.824;2023-01-26T04:07:13;78.22;;;24.77;;
74908;SDS011;63468;52.058;4.824;2023-01-26T04:09:57;79.22;;;27.95;;
74908;SDS011;63468;52.058;4.824;2023-01-26T04:12:22;77.40;;;28.58;;
74908;SDS011;63468;52.058;4.824;2023-01-26T04:14:47;78.95;;;27.15;;
74908;SDS011;63468;52.058;4.824;2023-01-26T04:17:31;70.03;;;26.02;;
74908;SDS011;63468;52.058;4.824;2023-01-26T04:20:15;59.40;;;24.13;;
74908;SDS011;63468;52.058;4.824;2023-01-26T04:22:59;61.97;;;25.35;;
74908;SDS011;63468;52.058;4.824;2023-01-26T04:25:24;80.15;;;26.92;;
74908;SDS011;63468;52.058;4.824;2023-01-26T04:27:50;76.90;;;27.05;;
74908;SDS011;63468;52.058;4.824;2023-01-26T04:30:15;69.90;;;27.77;;
74908;SDS011;63468;52.058;4.824;2023-01-26T04:32:41;73.13;;;26.17;;
74908;SDS011;63468;52.058;4.824;2023-01-26T04:35:07;77.60;;;27.73;;
74908;SDS011;63468;52.058;4.824;2023-01-26T04:37:33;72.65;;;28.73;;
74908;SDS011;63468;52.058;4.824;2023-01-26T04:39:58;77.28;;;30.08;;
74908;SDS011;63468;52.058;4.824;2023-01-26T04:42:24;69.00;;;26.05;;
74908;SDS011;63468;52.058;4.824;2023-01-26T04:44:50;70.85;;;28.38;;
74908;SDS011;63468;52.058;4.824;2023-01-26T04:47:16;67.97;;;25.42;;
74908;SDS011;63468;52.058;4.824;2023-01-26T04:49:41;72.03;;;26.10;;
74908;SDS011;63468;52.058;4.824;2023-01-26T04:52:06;70.35;;;28.80;;
74908;SDS011;63468;52.058;4.824;2023-01-26T04:54:32;87.90;;;30.75;;
74908;SDS011;63468;52.058;4.824;2023-01-26T04:56:57;70.15;;;26.05;;
74908;SDS011;63468;52.058;4.824;2023-01-26T04:59:22;81.72;;;28.15;;
74908;SDS011;63468;52.058;4.824;2023-01-26T05:01:48;65.93;;;26.65;;
74908;SDS011;63468;52.058;4.824;2023-01-26T05:04:13;88.40;;;30.52;;
74908;SDS011;63468;52.058;4.824;2023-01-26T05:06:38;77.05;;;26.65;;
74908;SDS011;63468;52.058;4.824;2023-01-26T05:09:05;63.75;;;26.67;;
74908;SDS011;63468;52.058;4.824;2023-01-26T05:11:31;73.65;;;28.00;;
74908;SDS011;63468;52.058;4.824;2023-01-26T05:13:57;66.82;;;26.05;;
74908;SDS011;63468;52.058;4.824;2023-01-26T05:16:22;62.28;;;25.15;;
74908;SDS011;63468;52.058;4.824;2023-01-26T05:18:48;62.47;;;23.30;;
74908;SDS011;63468;52.058;4.824;2023-01-26T05:21:13;83.07;;;28.48;;
74908;SDS011;63468;52.058;4.824;2023-01-26T05:23:38;75.47;;;28.40;;
74908;SDS011;63468;52.058;4.824;2023-01-26T05:26:04;62.95;;;25.75;;
74908;SDS011;63468;52.058;4.824;2023-01-26T05:28:30;74.45;;;28.92;;
74908;SDS011;63468;52.058;4.824;2023-01-26T05:30:55;77.63;;;28.83;;
74908;SDS011;63468;52.058;4.824;2023-01-26T05:33:20;68.00;;;26.13;;
74908;SDS011;63468;52.058;4.824;2023-01-26T05:35:49;71.60;;;27.67;;
74908;SDS011;63468;52.058;4.824;2023-01-26T05:38:17;75.82;;;30.73;;
74908;SDS011;63468;52.058;4.824;2023-01-26T05:40:43;67.15;;;30.00;;
74908;SDS011;63468;52.058;4.824;2023-01-26T05:43:10;78.28;;;28.33;;
74908;SDS011;63468;52.058;4.824;2023-01-26T05:45:36;72.07;;;32.03;;
74908;SDS011;63468;52.058;4.824;2023-01-26T05:48:02;84.88;;;30.83;;
74908;SDS011;63468;52.058;4.824;2023-01-26T05:50:27;84.32;;;34.45;;
74908;SDS011;63468;52.058;4.824;2023-01-26T05:52:53;72.97;;;28.08;;
74908;SDS011;63468;52.058;4.824;2023-01-26T05:55:18;72.40;;;27.70;;
74908;SDS011;63468;52.058;4.824;2023-01-26T05:57:44;78.60;;;28.80;;
74908;SDS011;63468;52.058;4.824;2023-01-26T06:00:09;71.43;;;26.75;;
74908;SDS011;63468;52.058;4.824;2023-01-26T06:02:36;72.70;;;29.77;;
74908;SDS011;63468;52.058;4.824;2023-01-26T06:05:01;68.07;;;25.45;;
74908;SDS011;63468;52.058;4.824;2023-01-26T06:07:26;64.93;;;28.83;;
74908;SDS011;63468;52.058;4.824;2023-01-26T06:09:52;75.45;;;26.27;;
74908;SDS011;63468;52.058;4.824;2023-01-26T06:12:18;73.30;;;29.40;;
74908;SDS011;63468;52.058;4.824;2023-01-26T06:14:44;66.88;;;27.25;;
74908;SDS011;63468;52.058;4.824;2023-01-26T06:17:10;62.15;;;24.17;;
74908;SDS011;63468;52.058;4.824;2023-01-26T06:19:35;73.47;;;26.52;;
74908;SDS011;63468;52.058;4.824;2023-01-26T06:22:01;71.70;;;28.15;;
74908;SDS011;63468;52.058;4.824;2023-01-26T06:24:27;68.93;;;26.92;;
74908;SDS011;63468;52.058;4.824;2023-01-26T06:26:52;60.53;;;24.58;;
74908;SDS011;63468;52.058;4.824;2023-01-26T06:29:18;62.25;;;27.25;;
74908;SDS011;63468;52.058;4.824;2023-01-26T06:31:43;63.30;;;24.33;;
74908;SDS011;63468;52.058;4.824;2023-01-26T06:34:08;71.13;;;29.80;;
74908;SDS011;63468;52.058;4.824;2023-01-26T06:36:35;69.07;;;27.63;;
74908;SDS011;63468;52.058;4.824;2023-01-26T06:39:00;71.93;;;29.33;;
74908;SDS011;63468;52.058;4.824;2023-01-26T06:41:25;78.63;;;28.00;;
74908;SDS011;63468;52.058;4.824;2023-01-26T06:43:51;79.97;;;29.98;;
74908;SDS011;63468;52.058;4.824;2023-01-26T06:46:16;87.70;;;27.20;;
74908;SDS011;63468;52.058;4.824;2023-01-26T06:48:42;68.68;;;26.27;;
74908;SDS011;63468;52.058;4.824;2023-01-26T06:53:48;90.97;;;29.80;;
74908;SDS011;63468;52.058;4.824;2023-01-26T06:56:16;95.05;;;29.13;;
74908;SDS011;63468;52.058;4.824;2023-01-26T06:58:41;95.75;;;28.73;;
74908;SDS011;63468;52.058;4.824;2023-01-26T07:01:13;98.38;;;29.25;;
74908;SDS011;63468;52.058;4.824;2023-01-26T07:03:49;105.05;;;28.30;;
74908;SDS011;63468;52.058;4.824;2023-01-26T07:06:15;130.13;;;32.83;;
74908;SDS011;63468;52.058;4.824;2023-01-26T07:08:41;97.25;;;28.52;;
74908;SDS011;63468;52.058;4.824;2023-01-26T07:11:06;111.05;;;25.88;;
74908;SDS011;63468;52.058;4.824;2023-01-26T07:13:32;94.50;;;27.83;;
74908;SDS011;63468;52.058;4.824;2023-01-26T07:16:01;94.00;;;29.60;;
74908;SDS011;63468;52.058;4.824;2023-01-26T07:18:31;95.80;;;30.95;;
74908;SDS011;63468;52.058;4.824;2023-01-26T07:21:00;88.90;;;27.48;;
74908;SDS011;63468;52.058;4.824;2023-01-26T07:23:26;93.10;;;30.02;;
74908;SDS011;63468;52.058;4.824;2023-01-26T07:25:52;102.45;;;31.45;;
74908;SDS011;63468;52.058;4.824;2023-01-26T07:28:17;96.90;;;30.00;;
74908;SDS011;63468;52.058;4.824;2023-01-26T07:30:42;111.20;;;29.85;;
74908;SDS011;63468;52.058;4.824;2023-01-26T07:33:08;62.45;;;23.75;;
74908;SDS011;63468;52.058;4.824;2023-01-26T07:35:33;77.13;;;26.30;;
74908;SDS011;63468;52.058;4.824;2023-01-26T07:37:59;80.00;;;25.20;;
74908;SDS011;63468;52.058;4.824;2023-01-26T07:40:24;75.10;;;25.85;;
74908;SDS011;63468;52.058;4.824;2023-01-26T07:42:49;67.57;;;24.92;;
74908;SDS011;63468;52.058;4.824;2023-01-26T07:45:15;68.13;;;24.95;;
74908;SDS011;63468;52.058;4.824;2023-01-26T07:47:41;66.47;;;22.77;;
74908;SDS011;63468;52.058;4.824;2023-01-26T07:50:08;63.88;;;25.15;;
74908;SDS011;63468;52.058;4.824;2023-01-26T07:52:34;68.50;;;28.27;;
74908;SDS011;63468;52.058;4.824;2023-01-26T07:54:59;63.47;;;23.23;;
74908;SDS011;63468;52.058;4.824;2023-01-26T07:57:24;62.88;;;22.70;;
74908;SDS011;63468;52.058;4.824;2023-01-26T07:59:50;53.42;;;23.17;;
74908;SDS011;63468;52.058;4.824;2023-01-26T08:02:15;50.25;;;16.38;;
74908;SDS011;63468;52.058;4.824;2023-01-26T08:04:40;40.28;;;19.02;;
74908;SDS011;63468;52.058;4.824;2023-01-26T08:07:06;50.10;;;17.58;;
74908;SDS011;63468;52.058;4.824;2023-01-26T08:09:31;46.58;;;17.30;;
74908;SDS011;63468;52.058;4.824;2023-01-26T08:11:56;44.40;;;17.77;;
74908;SDS011;63468;52.058;4.824;2023-01-26T08:14:23;57.42;;;17.70;;
74908;SDS011;63468;52.058;4.824;2023-01-26T08:16:48;40.38;;;16.58;;
74908;SDS011;63468;52.058;4.824;2023-01-26T08:19:14;28.27;;;13.30;;
74908;SDS011;63468;52.058;4.824;2023-01-26T08:21:39;42.70;;;15.75;;
74908;SDS011;63468;52.058;4.824;2023-01-26T08:24:04;36.95;;;13.82;;
74908;SDS011;63468;52.058;4.824;2023-01-26T08:26:31;38.83;;;15.25;;
74908;SDS011;63468;52.058;4.824;2023-01-26T08:28:56;31.58;;;13.77;;
74908;SDS011;63468;52.058;4.824;2023-01-26T08:31:22;27.35;;;10.85;;
74908;SDS011;63468;52.058;4.824;2023-01-26T08:33:49;28.77;;;10.80;;
74908;SDS011;63468;52.058;4.824;2023-01-26T08:36:15;31.98;;;12.55;;
74908;SDS011;63468;52.058;4.824;2023-01-26T08:38:41;28.20;;;12.82;;
74908;SDS011;63468;52.058;4.824;2023-01-26T08:41:07;23.92;;;11.18;;
74908;SDS011;63468;52.058;4.824;2023-01-26T08:43:33;19.85;;;11.05;;
74908;SDS011;63468;52.058;4.824;2023-01-26T08:45:58;29.77;;;12.10;;
74908;SDS011;63468;52.058;4.824;2023-01-26T08:48:24;26.52;;;10.20;;
74908;SDS011;63468;52.058;4.824;2023-01-26T08:50:53;25.58;;;11.95;;
74908;SDS011;63468;52.058;4.824;2023-01-26T08:53:19;27.20;;;12.95;;
74908;SDS011;63468;52.058;4.824;2023-01-26T08:55:45;31.10;;;12.15;;
74908;SDS011;63468;52.058;4.824;2023-01-26T08:58:10;41.67;;;14.40;;
74908;SDS011;63468;52.058;4.824;2023-01-26T09:00:35;26.55;;;12.48;;
74908;SDS011;63468;52.058;4.824;2023-01-26T09:03:01;43.22;;;13.00;;
74908;SDS011;63468;52.058;4.824;2023-01-26T09:05:30;26.48;;;10.77;;
74908;SDS011;63468;52.058;4.824;2023-01-26T09:07:56;46.50;;;12.85;;
74908;SDS011;63468;52.058;4.824;2023-01-26T09:10:22;36.28;;;14.20;;
74908;SDS011;63468;52.058;4.824;2023-01-26T09:12:47;31.20;;;13.63;;
74908;SDS011;63468;52.058;4.824;2023-01-26T09:15:12;23.02;;;11.40;;
74908;SDS011;63468;52.058;4.824;2023-01-26T09:17:38;30.50;;;10.57;;
74908;SDS011;63468;52.058;4.824;2023-01-26T09:20:04;25.40;;;11.93;;
74908;SDS011;63468;52.058;4.824;2023-01-26T09:22:30;31.75;;;12.93;;
74908;SDS011;63468;52.058;4.824;2023-01-26T09:24:55;29.92;;;13.02;;
74908;SDS011;63468;52.058;4.824;2023-01-26T09:27:21;27.80;;;12.10;;
74908;SDS011;63468;52.058;4.824;2023-01-26T09:29:46;27.92;;;11.43;;
74908;SDS011;63468;52.058;4.824;2023-01-26T09:32:12;26.67;;;12.73;;
74908;SDS011;63468;52.058;4.824;2023-01-26T09:34:37;28.73;;;14.13;;
74908;SDS011;63468;52.058;4.824;2023-01-26T09:37:02;26.02;;;12.15;;
74908;SDS011;63468;52.058;4.824;2023-01-26T09:39:38;27.88;;;11.77;;
74908;SDS011;63468;52.058;4.824;2023-01-26T09:44:47;28.98;;;13.13;;
74908;SDS011;63468;52.058;4.824;2023-01-26T09:47:19;29.25;;;12.77;;
74908;SDS011;63468;52.058;4.824;2023-01-26T09:52:22;37.03;;;12.30;;
74908;SDS011;63468;52.058;4.824;2023-01-26T09:54:52;32.95;;;12.35;;
74908;SDS011;63468;52.058;4.824;2023-01-26T10:02:41;33.42;;;14.73;;
74908;SDS011;63468;52.058;4.824;2023-01-26T10:05:19;24.45;;;14.07;;
74908;SDS011;63468;52.058;4.824;2023-01-26T10:07:49;23.88;;;13.23;;
74908;SDS011;63468;52.058;4.824;2023-01-26T10:10:33;28.17;;;14.18;;
74908;SDS011;63468;52.058;4.824;2023-01-26T10:13:00;27.20;;;14.55;;
74908;SDS011;63468;52.058;4.824;2023-01-26T10:15:28;30.95;;;13.00;;
74908;SDS011;63468;52.058;4.824;2023-01-26T10:17:56;21.85;;;11.70;;
74908;SDS011;63468;52.058;4.824;2023-01-26T10:20:26;27.90;;;13.98;;
74908;SDS011;63468;52.058;4.824;2023-01-26T10:22:55;29.58;;;13.85;;
74908;SDS011;63468;52.058;4.824;2023-01-26T10:30:55;33.70;;;14.10;;
74908;SDS011;63468;52.058;4.824;2023-01-26T10:33:24;29.63;;;14.10;;
74908;SDS011;63468;52.058;4.824;2023-01-26T10:35:52;35.58;;;13.65;;
74908;SDS011;63468;52.058;4.824;2023-01-26T10:41:23;25.35;;;13.40;;
74908;SDS011;63468;52.058;4.824;2023-01-26T10:43:52;27.00;;;14.23;;
74908;SDS011;63468;52.058;4.824;2023-01-26T10:46:36;37.55;;;12.90;;
74908;SDS011;63468;52.058;4.824;2023-01-26T10:51:36;24.17;;;12.98;;
74908;SDS011;63468;52.058;4.824;2023-01-26T10:54:19;31.60;;;14.00;;
74908;SDS011;63468;52.058;4.824;2023-01-26T10:56:49;29.30;;;13.00;;
74908;SDS011;63468;52.058;4.824;2023-01-26T10:59:38;23.10;;;13.65;;
74908;SDS011;63468;52.058;4.824;2023-01-26T11:04:35;31.33;;;15.52;;
74908;SDS011;63468;52.058;4.824;2023-01-26T11:07:18;24.92;;;13.05;;
74908;SDS011;63468;52.058;4.824;2023-01-26T11:09:49;20.27;;;12.27;;
74908;SDS011;63468;52.058;4.824;2023-01-26T11:12:19;21.35;;;12.35;;
74908;SDS011;63468;52.058;4.824;2023-01-26T11:14:58;24.75;;;14.48;;
74908;SDS011;63468;52.058;4.824;2023-01-26T11:17:25;18.40;;;11.65;;
74908;SDS011;63468;52.058;4.824;2023-01-26T11:23:23;26.83;;;14.90;;
74908;SDS011;63468;52.058;4.824;2023-01-26T11:34:01;21.55;;;14.57;;
74908;SDS011;63468;52.058;4.824;2023-01-26T11:39:30;16.33;;;13.57;;
74908;SDS011;63468;52.058;4.824;2023-01-26T11:42:08;18.40;;;14.15;;
74908;SDS011;63468;52.058;4.824;2023-01-26T11:47:50;17.83;;;14.52;;
74908;SDS011;63468;52.058;4.824;2023-01-26T11:59:09;27.55;;;13.23;;
74908;SDS011;63468;52.058;4.824;2023-01-26T12:01:39;22.23;;;12.43;;
74908;SDS011;63468;52.058;4.824;2023-01-26T12:04:10;23.38;;;14.10;;
74908;SDS011;63468;52.058;4.824;2023-01-26T12:06:41;25.35;;;12.93;;
74908;SDS011;63468;52.058;4.824;2023-01-26T12:11:52;31.67;;;12.18;;
74908;SDS011;63468;52.058;4.824;2023-01-26T12:20:12;19.75;;;11.75;;
74908;SDS011;63468;52.058;4.824;2023-01-26T12:22:41;28.05;;;12.77;;
74908;SDS011;63468;52.058;4.824;2023-01-26T12:27:55;25.17;;;12.45;;
74908;SDS011;63468;52.058;4.824;2023-01-26T12:33:12;16.83;;;11.27;;
74908;SDS011;63468;52.058;4.824;2023-01-26T12:38:19;19.17;;;12.73;;
74908;SDS011;63468;52.058;4.824;2023-01-26T12:43:55;17.75;;;11.20;;
74908;SDS011;63468;52.058;4.824;2023-01-26T12:46:25;19.45;;;7.85;;
74908;SDS011;63468;52.058;4.824;2023-01-26T12:48:56;17.80;;;11.25;;
74908;SDS011;63468;52.058;4.824;2023-01-26T12:51:28;17.95;;;10.20;;
74908;SDS011;63468;52.058;4.824;2023-01-26T12:56:31;18.88;;;11.25;;
74908;SDS011;63468;52.058;4.824;2023-01-26T12:59:00;17.20;;;10.27;;
74908;SDS011;63468;52.058;4.824;2023-01-26T13:01:38;21.30;;;9.93;;
74908;SDS011;63468;52.058;4.824;2023-01-26T13:04:08;18.83;;;10.90;;
74908;SDS011;63468;52.058;4.824;2023-01-26T13:06:35;17.48;;;10.52;;
74908;SDS011;63468;52.058;4.824;2023-01-26T13:09:02;19.10;;;11.07;;
74908;SDS011;63468;52.058;4.824;2023-01-26T13:14:22;18.73;;;10.10;;
74908;SDS011;63468;52.058;4.824;2023-01-26T13:24:56;19.25;;;11.18;;
74908;SDS011;63468;52.058;4.824;2023-01-26T13:29:57;19.73;;;10.48;;
74908;SDS011;63468;52.058;4.824;2023-01-26T13:34:57;13.45;;;9.55;;
74908;SDS011;63468;52.058;4.824;2023-01-26T13:40:21;18.73;;;9.02;;
74908;SDS011;63468;52.058;4.824;2023-01-26T13:42:51;14.05;;;9.50;;
74908;SDS011;63468;52.058;4.824;2023-01-26T13:51:01;20.40;;;9.38;;
74908;SDS011;63468;52.058;4.824;2023-01-26T13:53:40;16.13;;;9.25;;
74908;SDS011;63468;52.058;4.824;2023-01-26T13:57:09;12.65;;;9.25;;
74908;SDS011;63468;52.058;4.824;2023-01-26T14:01:49;19.70;;;9.85;;
74908;SDS011;63468;52.058;4.824;2023-01-26T14:04:16;13.57;;;9.10;;
74908;SDS011;63468;52.058;4.824;2023-01-26T14:06:55;12.18;;;9.65;;
74908;SDS011;63468;52.058;4.824;2023-01-26T14:09:27;20.13;;;9.00;;
74908;SDS011;63468;52.058;4.824;2023-01-26T14:11:56;13.35;;;9.65;;
74908;SDS011;63468;52.058;4.824;2023-01-26T14:14:24;16.10;;;9.63;;
74908;SDS011;63468;52.058;4.824;2023-01-26T14:16:51;16.77;;;9.25;;
74908;SDS011;63468;52.058;4.824;2023-01-26T14:19:18;19.80;;;6.53;;
74908;SDS011;63468;52.058;4.824;2023-01-26T14:21:46;18.50;;;8.73;;
74908;SDS011;63468;52.058;4.824;2023-01-26T14:24:24;17.80;;;8.82;;
74908;SDS011;63468;52.058;4.824;2023-01-26T14:26:56;13.65;;;8.30;;
74908;SDS011;63468;52.058;4.824;2023-01-26T14:29:22;13.65;;;7.93;;
74908;SDS011;63468;52.058;4.824;2023-01-26T14:31:48;14.52;;;8.55;;
74908;SDS011;63468;52.058;4.824;2023-01-26T14:34:22;15.95;;;9.48;;
74908;SDS011;63468;52.058;4.824;2023-01-26T14:39:38;14.80;;;8.43;;
74908;SDS011;63468;52.058;4.824;2023-01-26T14:42:04;15.50;;;8.05;;
74908;SDS011;63468;52.058;4.824;2023-01-26T14:44:29;12.23;;;8.18;;
74908;SDS011;63468;52.058;4.824;2023-01-26T14:54:54;14.55;;;9.98;;
74908;SDS011;63468;52.058;4.824;2023-01-26T14:57:21;15.93;;;8.70;;
74908;SDS011;63468;52.058;4.824;2023-01-26T14:59:50;11.73;;;8.70;;
74908;SDS011;63468;52.058;4.824;2023-01-26T15:02:24;15.52;;;8.10;;
74908;SDS011;63468;52.058;4.824;2023-01-26T15:04:53;19.80;;;9.25;;
74908;SDS011;63468;52.058;4.824;2023-01-26T15:07:20;15.35;;;9.57;;
74908;SDS011;63468;52.058;4.824;2023-01-26T15:09:59;15.45;;;8.38;;
74908;SDS011;63468;52.058;4.824;2023-01-26T15:12:25;17.50;;;8.60;;
74908;SDS011;63468;52.058;4.824;2023-01-26T15:14:54;18.58;;;8.90;;
74908;SDS011;63468;52.058;4.824;2023-01-26T15:17:36;21.10;;;6.88;;
74908;SDS011;63468;52.058;4.824;2023-01-26T15:20:10;14.48;;;8.70;;
74908;SDS011;63468;52.058;4.824;2023-01-26T15:22:38;17.40;;;9.82;;
74908;SDS011;63468;52.058;4.824;2023-01-26T15:25:19;16.55;;;8.57;;
74908;SDS011;63468;52.058;4.824;2023-01-26T15:27:50;20.45;;;10.13;;
74908;SDS011;63468;52.058;4.824;2023-01-26T15:30:27;17.88;;;9.63;;
74908;SDS011;63468;52.058;4.824;2023-01-26T15:32:54;13.73;;;9.13;;
74908;SDS011;63468;52.058;4.824;2023-01-26T15:35:27;18.33;;;9.13;;
74908;SDS011;63468;52.058;4.824;2023-01-26T15:40:29;14.57;;;8.98;;
74908;SDS011;63468;52.058;4.824;2023-01-26T15:45:50;14.68;;;8.43;;
74908;SDS011;63468;52.058;4.824;2023-01-26T15:48:17;16.13;;;9.05;;
74908;SDS011;63468;52.058;4.824;2023-01-26T15:50:42;14.63;;;8.90;;
74908;SDS011;63468;52.058;4.824;2023-01-26T15:53:15;16.02;;;9.25;;
74908;SDS011;63468;52.058;4.824;2023-01-26T15:55:42;16.77;;;10.35;;
74908;SDS011;63468;52.058;4.824;2023-01-26T15:58:08;13.27;;;9.43;;
74908;SDS011;63468;52.058;4.824;2023-01-26T16:00:33;15.13;;;11.25;;
74908;SDS011;63468;52.058;4.824;2023-01-26T16:03:00;14.70;;;9.85;;
74908;SDS011;63468;52.058;4.824;2023-01-26T16:05:28;21.95;;;10.23;;
74908;SDS011;63468;52.058;4.824;2023-01-26T16:07:53;16.20;;;9.93;;
74908;SDS011;63468;52.058;4.824;2023-01-26T16:10:18;15.35;;;11.68;;
74908;SDS011;63468;52.058;4.824;2023-01-26T16:12:44;13.18;;;11.85;;
74908;SDS011;63468;52.058;4.824;2023-01-26T16:15:29;15.85;;;11.05;;
74908;SDS011;63468;52.058;4.824;2023-01-26T16:18:01;17.48;;;6.40;;
74908;SDS011;63468;52.058;4.824;2023-01-26T16:20:26;13.68;;;9.35;;
74908;SDS011;63468;52.058;4.824;2023-01-26T16:22:52;12.27;;;9.68;;
74908;SDS011;63468;52.058;4.824;2023-01-26T16:27:53;17.90;;;8.57;;
74908;SDS011;63468;52.058;4.824;2023-01-26T16:30:18;14.70;;;10.20;;
74908;SDS011;63468;52.058;4.824;2023-01-26T16:32:44;13.13;;;9.55;;
74908;SDS011;63468;52.058;4.824;2023-01-26T16:35:14;16.40;;;8.55;;
74908;SDS011;63468;52.058;4.824;2023-01-26T16:37:41;16.93;;;9.30;;
74908;SDS011;63468;52.058;4.824;2023-01-26T16:40:07;14.80;;;10.23;;
74908;SDS011;63468;52.058;4.824;2023-01-26T16:42:33;19.73;;;8.75;;